Terminal Aerodrome Forecast
Issued by NWS Cleveland, OH

Home | Current Version | Previous Version | Text Only | Print | Product List | Glossary On
Versions: 1 2 3 4 5 6 7 8 9 10 11 12 13 14 15 16 17 18 19 20 21 22 23 24 25 26 27 28 29 30 31 32
000
FTUS41 KCLE 231400 AAA
TAFCLE
TAF AMD
KCLE 231445Z 2315/2418 32007KT P6SM BKN015
      TEMPO 2315/2317 SCT015
     FM231700 32007KT P6SM SCT025
     FM232200 29004KT P6SM BKN250
     FM240800 23004KT P6SM SCT100 BKN250
     FM241500 25007KT P6SM SCT025=

USA.gov is the U.S. government's official web portal to all federal, state and local government web resources and services.